createdAt,value
2019-03-04T00:01:01.165Z,99.90
2019-03-04T00:03:31.018Z,99.90
2019-03-04T00:06:00.743Z,99.90
2019-03-04T00:08:32.237Z,99.90
2019-03-04T00:11:02.104Z,99.90
2019-03-04T00:13:32.233Z,99.90
2019-03-04T00:16:01.941Z,99.90
2019-03-04T00:18:31.753Z,99.90
2019-03-04T00:21:01.401Z,99.90
2019-03-04T00:23:31.265Z,99.90
2019-03-04T00:26:00.881Z,99.90
2019-03-04T00:28:30.518Z,99.90
2019-03-04T00:31:00.312Z,99.90
2019-03-04T00:33:29.900Z,99.90
2019-03-04T00:35:59.569Z,99.90
2019-03-04T00:38:29.167Z,99.90
2019-03-04T00:40:58.865Z,98.10
2019-03-04T00:43:28.586Z,97.00
2019-03-04T00:45:58.445Z,96.60
2019-03-04T00:48:28.141Z,96.80
2019-03-04T00:50:57.966Z,97.30
2019-03-04T00:53:28.087Z,97.50
2019-03-04T00:55:58.827Z,97.70
2019-03-04T00:58:28.399Z,97.90
2019-03-04T01:00:57.961Z,97.50
2019-03-04T01:03:27.565Z,97.40
2019-03-04T01:05:57.162Z,97.60
2019-03-04T01:08:26.878Z,97.30
2019-03-04T01:10:56.393Z,97.40
2019-03-04T01:13:26.565Z,96.90
2019-03-04T01:15:56.483Z,96.20
2019-03-04T01:18:26.147Z,95.80
2019-03-04T01:20:56.076Z,95.50
2019-03-04T01:23:25.971Z,95.50
2019-03-04T01:25:55.849Z,95.10
2019-03-04T01:28:25.507Z,95.20
2019-03-04T01:30:55.175Z,95.20
2019-03-04T01:33:24.733Z,95.50
2019-03-04T01:35:54.413Z,96.20
2019-03-04T01:38:23.971Z,96.60
2019-03-04T01:40:54.109Z,97.20
2019-03-04T01:43:24.113Z,97.10
2019-03-04T01:45:54.375Z,97.10
2019-03-04T01:48:24.032Z,97.10
2019-03-04T01:50:54.013Z,97.40
2019-03-04T01:53:23.641Z,97.90
2019-03-04T01:55:53.546Z,98.10
2019-03-04T01:58:23.210Z,98.10
2019-03-04T02:00:53.158Z,98.30
2019-03-04T02:03:22.768Z,98.30
2019-03-04T02:05:52.309Z,98.60
2019-03-04T02:08:22.070Z,98.60
2019-03-04T02:10:51.691Z,98.70
2019-03-04T02:13:21.498Z,98.70
2019-03-04T02:15:51.082Z,98.90
2019-03-04T02:18:20.924Z,97.70
2019-03-04T02:20:50.453Z,98.10
2019-03-04T02:23:20.234Z,97.40
2019-03-04T02:26:25.262Z,98.00
2019-03-04T02:28:54.884Z,99.00
2019-03-04T02:31:24.828Z,98.90
2019-03-04T02:33:55.131Z,98.70
2019-03-04T02:36:24.974Z,98.80
2019-03-04T02:38:54.527Z,99.00
2019-03-04T02:41:24.086Z,98.90
2019-03-04T02:43:53.811Z,99.00
2019-03-04T02:46:23.432Z,99.40
2019-03-04T02:48:53.061Z,99.20
2019-03-04T02:51:22.802Z,99.60
2019-03-04T02:53:52.549Z,99.60
2019-03-04T02:56:22.200Z,99.80
2019-03-04T02:58:51.954Z,99.80
2019-03-04T03:01:21.749Z,99.80
2019-03-04T03:03:51.569Z,99.70
2019-03-04T03:06:21.664Z,99.90
2019-03-04T03:08:51.414Z,99.90
2019-03-04T03:11:21.008Z,99.90
2019-03-04T03:13:51.321Z,99.90
2019-03-04T03:16:24.802Z,99.90
2019-03-04T03:18:54.530Z,99.90
2019-03-04T03:21:24.609Z,99.90
2019-03-04T03:23:54.536Z,99.90
2019-03-04T03:26:24.107Z,99.90
2019-03-04T03:28:53.676Z,99.90
2019-03-04T03:31:23.226Z,99.90
2019-03-04T03:33:52.914Z,99.90
2019-03-04T03:36:22.548Z,99.90
2019-03-04T03:38:52.376Z,99.90
2019-03-04T03:41:21.973Z,99.90
2019-03-04T03:43:51.912Z,99.90
2019-03-04T03:46:21.682Z,99.90
2019-03-04T03:48:51.410Z,99.90
2019-03-04T03:51:20.942Z,99.90
2019-03-04T03:53:51.216Z,99.90
2019-03-04T03:56:20.745Z,99.90
2019-03-04T03:58:50.608Z,99.90
2019-03-04T04:01:20.261Z,99.90
2019-03-04T04:03:49.903Z,99.90
2019-03-04T04:06:20.027Z,99.90
2019-03-04T04:08:49.758Z,99.90
2019-03-04T04:11:19.708Z,99.90
2019-03-04T04:13:49.592Z,99.90
2019-03-04T04:16:19.251Z,99.90
2019-03-04T04:18:48.904Z,99.90
2019-03-04T04:21:18.554Z,99.90
2019-03-04T04:23:48.202Z,99.90
2019-03-04T04:26:24.207Z,99.90
2019-03-04T04:29:08.038Z,99.90
2019-03-04T04:31:37.644Z,99.90
2019-03-04T04:34:26.240Z,99.90
2019-03-04T04:36:56.079Z,99.90
2019-03-04T04:39:25.788Z,99.90
2019-03-04T04:41:55.662Z,99.90
2019-03-04T04:44:25.367Z,99.90
2019-03-04T04:46:59.299Z,99.90
2019-03-04T04:49:33.436Z,99.90
2019-03-04T04:52:02.985Z,99.90
2019-03-04T04:54:32.897Z,99.90
2019-03-04T04:57:05.867Z,99.90
2019-03-04T04:59:35.389Z,99.90
2019-03-04T05:02:05.439Z,99.90
2019-03-04T05:04:35.195Z,99.90
2019-03-04T05:07:04.966Z,99.90
2019-03-04T05:09:34.838Z,99.90
2019-03-04T05:12:04.760Z,99.90
2019-03-04T05:14:35.081Z,99.90
2019-03-04T05:17:07.580Z,99.90
2019-03-04T05:19:36.435Z,99.90
2019-03-04T05:22:06.299Z,99.90
2019-03-04T05:24:36.232Z,99.90
2019-03-04T05:27:05.858Z,99.90
2019-03-04T05:29:35.461Z,99.90
2019-03-04T05:32:05.174Z,99.90
2019-03-04T05:34:34.750Z,99.90
2019-03-04T05:37:23.300Z,99.90
2019-03-04T05:39:53.094Z,99.90
2019-03-04T05:42:24.529Z,99.90
2019-03-04T05:44:54.430Z,99.90
2019-03-04T05:47:24.182Z,99.90
2019-03-04T05:49:53.954Z,99.90
2019-03-04T05:52:23.860Z,99.90
2019-03-04T05:54:53.659Z,99.90
2019-03-04T05:57:23.416Z,99.90
2019-03-04T05:59:53.184Z,99.90
2019-03-04T06:02:23.028Z,99.90
2019-03-04T06:04:52.832Z,99.90
2019-03-04T06:07:40.472Z,99.90
2019-03-04T06:10:13.539Z,99.90
2019-03-04T06:12:43.128Z,99.90
2019-03-04T06:15:14.934Z,99.90
2019-03-04T06:17:44.763Z,99.90
2019-03-04T06:20:15.860Z,99.90
2019-03-04T06:22:45.678Z,99.90
2019-03-04T06:25:19.512Z,99.90
2019-03-04T06:27:49.104Z,99.90
2019-03-04T06:30:20.702Z,99.90
2019-03-04T06:32:50.280Z,99.90
2019-03-04T06:35:19.865Z,99.90
2019-03-04T06:37:49.594Z,99.90
2019-03-04T06:40:21.661Z,99.90
2019-03-04T06:42:51.340Z,99.90
2019-03-04T06:45:20.932Z,99.90
2019-03-04T06:47:50.605Z,99.90
2019-03-04T06:50:47.978Z,99.70
2019-03-04T06:53:35.164Z,99.50
2019-03-04T06:56:31.754Z,99.90
2019-03-04T06:59:05.383Z,99.10
2019-03-04T07:01:39.372Z,99.10
2019-03-04T07:04:22.777Z,99.10
2019-03-04T07:06:52.795Z,99.50
2019-03-04T07:09:24.128Z,99.20
2019-03-04T07:11:54.772Z,99.50
2019-03-04T07:14:24.819Z,99.90
2019-03-04T07:16:54.789Z,99.90
2019-03-04T07:19:35.552Z,99.90
2019-03-04T07:22:05.288Z,99.90
2019-03-04T07:24:34.835Z,99.90
2019-03-04T07:27:04.628Z,99.90
2019-03-04T07:29:34.299Z,99.50
2019-03-04T07:32:04.691Z,99.30
2019-03-04T07:34:34.259Z,99.40
2019-03-04T07:37:22.808Z,99.60
2019-03-04T07:39:52.569Z,99.80
2019-03-04T07:42:22.124Z,99.90
2019-03-04T07:44:51.771Z,99.70
2019-03-04T07:47:21.361Z,99.80
2019-03-04T07:49:51.845Z,99.40
2019-03-04T07:52:21.415Z,98.60
2019-03-04T07:54:50.928Z,98.00
2019-03-04T07:57:20.616Z,97.90
2019-03-04T07:59:50.485Z,97.10
2019-03-04T08:02:20.041Z,96.70
2019-03-04T08:04:50.209Z,96.20
2019-03-04T08:07:40.328Z,95.60
2019-03-04T08:10:33.049Z,95.20
2019-03-04T08:13:29.301Z,95.70
2019-03-04T08:15:59.923Z,95.00
2019-03-04T08:18:29.598Z,95.50
2019-03-04T08:20:59.161Z,94.30
2019-03-04T08:23:28.845Z,94.00
2019-03-04T08:25:58.685Z,94.90
2019-03-04T08:28:28.393Z,93.60
2019-03-04T08:30:58.224Z,92.80
2019-03-04T08:33:28.087Z,91.00
2019-03-04T08:35:57.747Z,89.10
2019-03-04T08:38:27.490Z,83.20
2019-03-04T08:40:57.172Z,81.00
2019-03-04T08:43:26.913Z,78.80
2019-03-04T08:45:56.911Z,72.00
2019-03-04T08:48:26.761Z,73.40
2019-03-04T08:50:56.683Z,63.80
2019-03-04T08:53:26.390Z,62.80
2019-03-04T08:55:56.007Z,63.40
2019-03-04T08:58:25.894Z,66.60
2019-03-04T09:00:55.662Z,62.60
2019-03-04T09:03:25.366Z,59.20
2019-03-04T09:05:55.226Z,59.40
2019-03-04T09:08:44.423Z,55.80
2019-03-04T09:11:14.125Z,56.20
2019-03-04T09:13:43.944Z,51.00
2019-03-04T09:16:13.462Z,49.60
2019-03-04T09:18:43.404Z,52.70
2019-03-04T09:21:13.628Z,53.00
2019-03-04T09:23:43.603Z,50.60
2019-03-04T09:26:13.160Z,48.30
2019-03-04T09:28:42.932Z,46.80
2019-03-04T09:31:12.510Z,43.80
2019-03-04T09:33:42.682Z,44.70
2019-03-04T09:36:12.646Z,42.80
2019-03-04T09:38:42.144Z,45.00
2019-03-04T09:41:11.684Z,42.30
2019-03-04T09:43:41.961Z,40.70
2019-03-04T09:46:11.890Z,43.70
2019-03-04T09:48:41.632Z,41.40
2019-03-04T09:51:11.450Z,41.10
2019-03-04T09:53:43.057Z,42.70
2019-03-04T09:56:13.090Z,42.70
2019-03-04T09:58:42.713Z,41.70
2019-03-04T10:01:25.112Z,42.00
2019-03-04T10:04:35.010Z,42.60
2019-03-04T10:07:39.887Z,40.90
2019-03-04T10:10:47.551Z,39.40
2019-03-04T10:13:44.676Z,40.30
2019-03-04T10:16:55.522Z,40.60
2019-03-04T10:19:51.406Z,39.70
2019-03-04T10:22:39.430Z,37.00
2019-03-04T10:25:58.120Z,38.00
2019-03-04T10:29:17.599Z,36.30
2019-03-04T10:32:22.377Z,35.90
2019-03-04T10:35:39.297Z,39.60
2019-03-04T10:38:22.290Z,38.00
2019-03-04T10:41:29.524Z,40.10
2019-03-04T10:44:10.103Z,43.50
2019-03-04T10:47:00.262Z,41.90
2019-03-04T10:49:35.160Z,44.90
2019-03-04T10:52:05.041Z,47.10
2019-03-04T10:54:34.828Z,49.30
2019-03-04T10:57:04.378Z,48.70
2019-03-04T10:59:34.336Z,47.30
2019-03-04T11:02:04.426Z,46.80
2019-03-04T11:04:34.279Z,45.30
2019-03-04T11:07:04.125Z,43.00
2019-03-04T11:09:33.737Z,43.00
2019-03-04T11:12:03.529Z,40.90
2019-03-04T11:14:33.233Z,40.40
2019-03-04T11:17:02.917Z,40.30
2019-03-04T11:19:32.479Z,38.20
2019-03-04T11:22:02.077Z,38.30
2019-03-04T11:24:32.845Z,40.10
2019-03-04T11:27:02.866Z,39.50
2019-03-04T11:29:32.750Z,40.50
2019-03-04T11:32:02.394Z,41.50
2019-03-04T11:34:31.924Z,39.50
2019-03-04T11:37:01.887Z,40.80
2019-03-04T11:39:56.551Z,41.70
2019-03-04T11:42:26.159Z,42.00
2019-03-04T11:44:56.007Z,43.90
2019-03-04T11:47:26.861Z,44.90
2019-03-04T11:49:56.757Z,43.60
2019-03-04T11:52:26.625Z,44.10
2019-03-04T11:54:56.504Z,44.00
2019-03-04T11:57:27.693Z,45.70
2019-03-04T11:59:58.126Z,46.50
2019-03-04T12:02:38.697Z,46.10
2019-03-04T12:05:01.626Z,47.40
2019-03-04T12:07:31.280Z,47.10
2019-03-04T12:10:02.014Z,47.20
2019-03-04T12:12:33.359Z,47.70
2019-03-04T12:15:03.017Z,48.30
2019-03-04T12:17:32.631Z,49.50
2019-03-04T12:20:02.396Z,49.60
2019-03-04T12:22:32.282Z,50.70
2019-03-04T12:25:01.858Z,51.00
2019-03-04T12:27:31.568Z,52.30
2019-03-04T12:30:01.156Z,52.60
2019-03-04T12:32:34.062Z,53.00
2019-03-04T12:35:04.404Z,53.70
2019-03-04T12:37:34.183Z,53.70
2019-03-04T12:40:05.638Z,54.70
2019-03-04T12:42:35.806Z,55.70
2019-03-04T12:45:06.634Z,57.70
2019-03-04T12:47:36.560Z,59.10
2019-03-04T12:50:09.012Z,59.00
2019-03-04T12:52:38.849Z,60.60
2019-03-04T12:55:09.111Z,60.40
2019-03-04T12:57:38.798Z,63.20
2019-03-04T13:00:11.338Z,65.90
2019-03-04T13:02:40.908Z,68.70
2019-03-04T13:05:10.984Z,70.70
2019-03-04T13:07:40.668Z,73.60
2019-03-04T13:10:11.135Z,76.40
2019-03-04T13:12:41.004Z,78.20
2019-03-04T13:15:14.412Z,80.00
2019-03-04T13:17:44.014Z,80.60
2019-03-04T13:20:14.923Z,79.70
2019-03-04T13:22:44.512Z,79.00
2019-03-04T13:25:14.354Z,79.30
2019-03-04T13:27:44.400Z,78.00
2019-03-04T13:30:33.935Z,74.90
2019-03-04T13:33:03.800Z,76.70
2019-03-04T13:35:33.529Z,77.90
2019-03-04T13:38:03.201Z,77.70
2019-03-04T13:40:44.047Z,79.00
2019-03-04T13:43:13.880Z,80.20
2019-03-04T13:45:43.565Z,80.50
2019-03-04T13:48:13.641Z,79.90
2019-03-04T13:50:43.564Z,80.10
2019-03-04T13:53:14.592Z,80.10
2019-03-04T13:55:44.325Z,80.10
2019-03-04T13:58:14.089Z,80.30
2019-03-04T14:00:44.248Z,80.50
2019-03-04T14:03:16.653Z,78.80
2019-03-04T14:05:46.498Z,79.10
2019-03-04T14:08:17.288Z,80.20
2019-03-04T14:10:47.060Z,81.80
2019-03-04T14:13:16.922Z,82.90
2019-03-04T14:15:46.929Z,85.90
2019-03-04T14:18:17.770Z,87.10
2019-03-04T14:20:48.059Z,89.00
2019-03-04T14:23:17.772Z,89.00
2019-03-04T14:25:49.780Z,89.70
2019-03-04T14:28:19.220Z,89.80
2019-03-04T14:30:48.901Z,90.60
2019-03-04T14:33:18.914Z,91.10
2019-03-04T14:35:48.555Z,91.80
2019-03-04T14:38:18.529Z,92.10
2019-03-04T14:40:48.110Z,92.60
2019-03-04T14:43:18.134Z,92.90
2019-03-04T14:45:47.968Z,93.10
2019-03-04T14:48:18.127Z,92.40
2019-03-04T14:50:48.119Z,92.60
2019-03-04T14:53:17.831Z,92.40
2019-03-04T14:55:47.467Z,92.30
2019-03-04T14:58:17.058Z,92.00
2019-03-04T15:00:49.499Z,91.80
2019-03-04T15:03:23.413Z,91.50
2019-03-04T15:05:50.590Z,91.80
2019-03-04T15:08:20.295Z,91.70
2019-03-04T15:10:49.921Z,91.70
2019-03-04T15:13:21.105Z,91.90
2019-03-04T15:16:00.795Z,91.80
2019-03-04T15:18:22.694Z,91.70
2019-03-04T15:20:52.293Z,91.70
2019-03-04T15:23:21.927Z,91.90
2019-03-04T15:25:51.599Z,91.90
2019-03-04T15:28:22.460Z,91.90
2019-03-04T15:30:54.739Z,92.10
2019-03-04T15:33:24.447Z,92.30
2019-03-04T15:35:54.045Z,92.20
2019-03-04T15:38:23.886Z,92.30
2019-03-04T15:40:53.858Z,92.40
2019-03-04T15:43:23.897Z,92.10
2019-03-04T15:45:54.113Z,92.20
2019-03-04T15:48:28.460Z,92.20
2019-03-04T15:50:58.424Z,92.30
2019-03-04T15:53:28.208Z,91.90
2019-03-04T15:55:57.825Z,92.10
2019-03-04T15:58:27.902Z,92.10
2019-03-04T16:00:57.661Z,92.00
2019-03-04T16:03:27.460Z,92.20
2019-03-04T16:05:57.087Z,92.30
2019-03-04T16:08:26.951Z,92.10
2019-03-04T16:10:56.892Z,92.50
2019-03-04T16:13:26.854Z,92.40
2019-03-04T16:15:57.074Z,92.60
2019-03-04T16:18:26.921Z,92.70
2019-03-04T16:20:56.642Z,92.30
2019-03-04T16:23:26.258Z,92.30
2019-03-04T16:25:55.892Z,92.70
2019-03-04T16:28:27.502Z,92.40
2019-03-04T16:30:58.228Z,92.40
2019-03-04T16:33:27.809Z,92.10
2019-03-04T16:35:57.650Z,91.60
2019-03-04T16:38:27.420Z,91.70
2019-03-04T16:40:57.412Z,92.00
2019-03-04T16:43:27.050Z,91.70
2019-03-04T16:45:56.888Z,91.70
2019-03-04T16:48:26.492Z,91.50
2019-03-04T16:50:56.152Z,91.30
2019-03-04T16:53:25.716Z,91.50
2019-03-04T16:55:55.648Z,91.30
2019-03-04T16:58:25.380Z,91.40
2019-03-04T17:00:55.381Z,91.10
2019-03-04T17:03:25.153Z,90.80
2019-03-04T17:05:54.905Z,90.60
2019-03-04T17:08:24.597Z,90.40
2019-03-04T17:10:54.341Z,90.30
2019-03-04T17:13:24.202Z,90.50
2019-03-04T17:15:54.198Z,90.40
2019-03-04T17:18:23.865Z,90.40
2019-03-04T17:20:53.881Z,90.80
2019-03-04T17:23:23.584Z,91.00
2019-03-04T17:25:53.603Z,90.30
2019-03-04T17:28:23.963Z,90.50
2019-03-04T17:30:53.659Z,90.00
2019-03-04T17:33:23.845Z,90.00
2019-03-04T17:35:53.680Z,89.80
2019-03-04T17:38:23.385Z,89.30
2019-03-04T17:40:53.241Z,88.20
2019-03-04T17:43:22.952Z,87.80
2019-03-04T17:45:52.859Z,87.00
2019-03-04T17:48:22.562Z,87.50
2019-03-04T17:50:52.277Z,86.80
2019-03-04T17:53:21.945Z,86.90
2019-03-04T17:55:51.789Z,87.10
2019-03-04T17:58:22.833Z,87.00
2019-03-04T18:00:54.061Z,86.90
2019-03-04T18:03:23.719Z,86.80
2019-03-04T18:05:54.183Z,88.20
2019-03-04T18:08:23.835Z,88.30
2019-03-04T18:10:53.489Z,88.10
2019-03-04T18:13:23.232Z,86.20
2019-03-04T18:15:53.060Z,85.40
2019-03-04T18:18:22.756Z,83.60
2019-03-04T18:20:52.689Z,83.80
2019-03-04T18:23:22.683Z,84.00
2019-03-04T18:26:02.834Z,83.30
2019-03-04T18:29:15.379Z,84.00
2019-03-04T18:32:01.443Z,83.80
2019-03-04T18:35:07.733Z,84.20
2019-03-04T18:38:17.368Z,83.40
2019-03-04T18:41:21.091Z,82.50
2019-03-04T18:44:16.564Z,81.20
2019-03-04T18:47:12.619Z,81.10
2019-03-04T18:49:42.332Z,80.90
2019-03-04T18:52:12.218Z,78.00
2019-03-04T18:54:41.856Z,77.00
2019-03-04T18:57:11.533Z,75.60
2019-03-04T18:59:41.494Z,71.90
2019-03-04T19:02:11.355Z,70.40
2019-03-04T19:04:41.661Z,70.20
2019-03-04T19:07:11.377Z,70.40
2019-03-04T19:09:41.347Z,68.00
2019-03-04T19:12:11.255Z,67.40
2019-03-04T19:14:40.982Z,68.30
2019-03-04T19:17:10.962Z,66.30
2019-03-04T19:19:40.780Z,66.10
2019-03-04T19:22:10.534Z,66.90
2019-03-04T19:24:40.161Z,67.10
2019-03-04T19:27:10.157Z,68.10
2019-03-04T19:29:40.056Z,69.00
2019-03-04T19:32:09.864Z,70.40
2019-03-04T19:34:39.742Z,70.90
2019-03-04T19:37:09.690Z,72.80
2019-03-04T19:39:39.527Z,73.10
2019-03-04T19:42:09.493Z,75.50
2019-03-04T19:44:40.449Z,76.30
2019-03-04T19:47:10.190Z,78.10
2019-03-04T19:49:39.989Z,78.70
2019-03-04T19:52:09.703Z,80.50
2019-03-04T19:54:39.509Z,81.00
2019-03-04T19:57:09.269Z,81.10
2019-03-04T19:59:39.136Z,81.60
2019-03-04T20:02:11.905Z,82.70
2019-03-04T20:04:41.681Z,83.30
2019-03-04T20:07:11.458Z,84.00
2019-03-04T20:09:41.338Z,85.40
2019-03-04T20:12:11.036Z,86.50
2019-03-04T20:14:41.056Z,87.60
2019-03-04T20:17:11.086Z,89.40
2019-03-04T20:19:40.773Z,90.20
2019-03-04T20:22:10.437Z,90.40
2019-03-04T20:24:40.413Z,90.90
2019-03-04T20:27:10.611Z,91.80
2019-03-04T20:29:40.249Z,92.40
2019-03-04T20:32:10.095Z,92.90
2019-03-04T20:34:40.020Z,93.40
2019-03-04T20:37:10.508Z,93.80
2019-03-04T20:39:40.264Z,94.40
2019-03-04T20:42:10.564Z,95.00
2019-03-04T20:44:40.228Z,95.40
2019-03-04T20:47:10.090Z,95.70
2019-03-04T20:49:39.876Z,96.30
2019-03-04T20:52:09.512Z,96.40
2019-03-04T20:54:39.444Z,96.70
2019-03-04T20:57:09.110Z,96.90
2019-03-04T20:59:38.965Z,97.00
2019-03-04T21:02:08.897Z,97.10
2019-03-04T21:04:38.587Z,97.10
2019-03-04T21:07:08.265Z,96.90
2019-03-04T21:09:38.016Z,97.00
2019-03-04T21:12:08.017Z,97.10
2019-03-04T21:14:38.052Z,97.00
2019-03-04T21:17:08.409Z,97.00
2019-03-04T21:19:38.017Z,97.20
2019-03-04T21:22:07.975Z,97.20
2019-03-04T21:24:37.810Z,97.20
2019-03-04T21:27:08.145Z,97.30
2019-03-04T21:29:49.662Z,97.20
2019-03-04T21:32:40.160Z,97.30
2019-03-04T21:36:02.883Z,97.30
2019-03-04T21:38:33.800Z,97.30
2019-03-04T21:41:38.300Z,97.50
2019-03-04T21:45:00.787Z,97.60
2019-03-04T21:47:34.532Z,98.00
2019-03-04T21:50:04.714Z,98.30
2019-03-04T21:52:53.443Z,98.60
2019-03-04T21:55:30.253Z,98.60
2019-03-04T21:58:00.124Z,98.80
2019-03-04T22:00:41.475Z,99.10
2019-03-04T22:03:17.561Z,99.70
2019-03-04T22:05:50.535Z,99.90
2019-03-04T22:08:19.600Z,99.90
2019-03-04T22:10:49.573Z,99.90
2019-03-04T22:13:19.674Z,99.90
2019-03-04T22:15:49.435Z,99.90
2019-03-04T22:18:19.514Z,99.90
2019-03-04T22:20:49.167Z,99.90
2019-03-04T22:23:19.061Z,99.90
2019-03-04T22:25:48.729Z,99.90
2019-03-04T22:28:18.476Z,99.90
2019-03-04T22:30:48.063Z,99.90
2019-03-04T22:33:17.699Z,99.90
2019-03-04T22:35:47.446Z,99.90
2019-03-04T22:38:17.037Z,99.90
2019-03-04T22:40:46.767Z,99.90
2019-03-04T22:43:16.397Z,99.90
2019-03-04T22:45:46.001Z,99.90
2019-03-04T22:48:15.661Z,99.90
2019-03-04T22:50:45.264Z,99.90
2019-03-04T22:53:15.321Z,99.90
2019-03-04T22:55:45.322Z,99.90
2019-03-04T22:58:14.932Z,99.90
2019-03-04T23:01:31.359Z,99.90
2019-03-04T23:04:13.489Z,99.90
2019-03-04T23:06:50.318Z,99.90
2019-03-04T23:09:21.084Z,99.90
2019-03-04T23:11:56.238Z,99.90
2019-03-04T23:14:28.408Z,99.90
2019-03-04T23:17:00.085Z,99.90
2019-03-04T23:19:29.577Z,99.90
2019-03-04T23:21:59.385Z,99.90
2019-03-04T23:24:29.008Z,99.90
2019-03-04T23:26:58.643Z,99.90
2019-03-04T23:29:29.932Z,99.90
2019-03-04T23:31:59.608Z,99.90
2019-03-04T23:34:31.041Z,99.90
2019-03-04T23:37:00.968Z,99.90
2019-03-04T23:39:30.995Z,99.90
2019-03-04T23:42:00.600Z,99.90
2019-03-04T23:44:30.394Z,99.90
2019-03-04T23:47:00.798Z,99.90
2019-03-04T23:49:30.588Z,99.90
2019-03-04T23:52:00.258Z,99.90
2019-03-04T23:54:30.232Z,99.90
2019-03-04T23:57:00.176Z,99.90
2019-03-04T23:59:29.798Z,99.90
